aviador You're here:

KMCX Decoded Metar

in
Report Time2017-07-22 10:35:00
UTC Time2017-07-22 10:37:13
Flight Rules vfr VFR
Wind170° at 06 kt
W.Decomp.*RWY 18: 5.9 kt HW 1 kt LCW
W.Rank170° ranks 14
Current wind is below 170° avg. (6.0)
Visibility9999 m
Phenomena:N/A
Clouds:Broken 120 Hf
Expected CloudBase > 400 ft AGL from Temp-Dew spread
Ceiling12,000 ft
Temp22°C
Dew Point21°C (94% RH)
QNH1009 hPa
Raw Report
METAR KMCX 221035Z AUTO 17006KT 10SM BKN120 22/21 A2981 RMK AO2 T02200212=

Extra information for KMCX:More info

Social comments